createdAt,value
2018-08-06T00:00:21.395Z,2.90
2018-08-06T00:02:50.146Z,2.77
2018-08-06T00:05:18.618Z,2.80
2018-08-06T00:07:47.264Z,2.80
2018-08-06T00:10:18.437Z,2.40
2018-08-06T00:12:46.962Z,2.70
2018-08-06T00:15:15.938Z,3.10
2018-08-06T00:17:44.590Z,2.30
2018-08-06T00:20:13.940Z,2.73
2018-08-06T00:22:42.836Z,2.77
2018-08-06T00:25:12.627Z,2.60
2018-08-06T00:27:41.892Z,3.00
2018-08-06T00:30:13.738Z,2.77
2018-08-06T00:32:45.514Z,2.70
2018-08-06T00:35:14.499Z,2.87
2018-08-06T00:37:43.118Z,3.83
2018-08-06T00:40:13.202Z,2.97
2018-08-06T00:42:42.096Z,3.00
2018-08-06T00:45:11.230Z,3.37
2018-08-06T00:47:40.415Z,3.33
2018-08-06T00:50:09.229Z,2.90
2018-08-06T00:52:38.302Z,3.20
2018-08-06T00:55:08.971Z,3.23
2018-08-06T00:57:37.568Z,3.40
2018-08-06T01:00:08.248Z,3.63
2018-08-06T01:02:36.847Z,3.17
2018-08-06T01:05:06.571Z,3.30
2018-08-06T01:07:35.153Z,3.23
2018-08-06T01:10:05.103Z,3.17
2018-08-06T01:12:33.756Z,3.57
2018-08-06T01:15:02.330Z,3.30
2018-08-06T01:17:30.583Z,3.17
2018-08-06T01:19:59.139Z,3.00
2018-08-06T01:22:27.729Z,3.60
2018-08-06T01:24:56.395Z,3.23
2018-08-06T01:27:24.961Z,3.60
2018-08-06T01:29:53.549Z,3.77
2018-08-06T01:32:21.756Z,4.00
2018-08-06T01:34:50.415Z,3.57
2018-08-06T01:37:19.005Z,3.40
2018-08-06T01:39:47.235Z,3.47
2018-08-06T01:42:15.826Z,3.63
2018-08-06T01:44:44.381Z,3.53
2018-08-06T01:47:13.924Z,3.70
2018-08-06T01:49:42.565Z,3.83
2018-08-06T01:52:10.827Z,4.33
2018-08-06T01:54:39.328Z,3.53
2018-08-06T01:57:07.949Z,4.10
2018-08-06T01:59:36.642Z,3.77
2018-08-06T02:02:05.416Z,3.80
2018-08-06T02:04:33.866Z,3.67
2018-08-06T02:07:02.391Z,4.30
2018-08-06T02:09:30.898Z,3.63
2018-08-06T02:11:59.474Z,4.00
2018-08-06T02:14:27.945Z,3.87
2018-08-06T02:16:56.133Z,3.57
2018-08-06T02:19:24.699Z,3.60
2018-08-06T02:21:53.233Z,4.07
2018-08-06T02:24:21.737Z,3.70
2018-08-06T02:26:50.275Z,4.43
2018-08-06T02:29:18.766Z,3.90
2018-08-06T02:31:47.268Z,4.10
2018-08-06T02:34:15.839Z,3.90
2018-08-06T02:36:44.396Z,3.60
2018-08-06T02:39:12.843Z,4.07
2018-08-06T02:41:41.362Z,3.67
2018-08-06T02:44:09.886Z,4.27
2018-08-06T02:46:38.404Z,3.87
2018-08-06T02:49:06.906Z,3.97
2018-08-06T02:51:35.455Z,3.90
2018-08-06T02:54:03.935Z,4.50
2018-08-06T02:56:32.458Z,3.90
2018-08-06T02:59:00.925Z,3.80
2018-08-06T03:01:29.461Z,3.83
2018-08-06T03:03:58.063Z,3.50
2018-08-06T03:06:26.609Z,3.53
2018-08-06T03:08:55.094Z,3.77
2018-08-06T03:11:23.681Z,3.53
2018-08-06T03:13:52.385Z,3.97
2018-08-06T03:16:20.878Z,3.50
2018-08-06T03:18:49.351Z,3.37
2018-08-06T03:21:17.827Z,3.33
2018-08-06T03:23:46.275Z,3.57
2018-08-06T03:26:14.833Z,3.20
2018-08-06T03:28:43.013Z,3.57
2018-08-06T03:31:11.233Z,3.23
2018-08-06T03:33:39.844Z,4.10
2018-08-06T03:36:08.390Z,4.20
2018-08-06T03:38:36.946Z,3.50
2018-08-06T03:41:05.491Z,3.60
2018-08-06T03:43:34.036Z,3.70
2018-08-06T03:46:02.252Z,3.67
2018-08-06T03:48:30.771Z,3.57
2018-08-06T03:50:59.332Z,3.73
2018-08-06T03:53:27.897Z,3.57
2018-08-06T03:55:56.409Z,3.70
2018-08-06T03:58:24.959Z,3.77
2018-08-06T04:00:53.541Z,4.27
2018-08-06T04:03:21.692Z,4.47
2018-08-06T04:05:50.199Z,5.03
2018-08-06T04:08:18.752Z,4.57
2018-08-06T04:10:47.450Z,4.37
2018-08-06T04:13:15.980Z,4.03
2018-08-06T04:15:44.458Z,4.23
2018-08-06T04:18:12.960Z,4.63
2018-08-06T04:20:41.489Z,5.03
2018-08-06T04:23:09.983Z,4.80
2018-08-06T04:28:34.743Z,5.00
2018-08-06T04:31:03.248Z,4.37
2018-08-06T04:33:31.826Z,4.27
2018-08-06T04:36:00.375Z,4.20
2018-08-06T04:38:28.618Z,4.87
2018-08-06T04:40:57.378Z,4.60
2018-08-06T04:43:26.664Z,4.43
2018-08-06T04:45:55.515Z,4.70
2018-08-06T04:48:23.969Z,3.87
2018-08-06T04:50:52.448Z,4.30
2018-08-06T04:53:20.936Z,4.43
2018-08-06T04:55:49.477Z,4.43
2018-08-06T04:58:18.098Z,4.40
2018-08-06T05:00:46.889Z,4.13
2018-08-06T05:03:15.415Z,4.50
2018-08-06T05:05:43.931Z,4.33
2018-08-06T05:08:12.501Z,4.00
2018-08-06T05:10:41.079Z,4.20
2018-08-06T05:13:09.524Z,3.77
2018-08-06T05:15:38.029Z,4.20
2018-08-06T05:18:06.531Z,3.83
2018-08-06T05:20:36.164Z,3.83
2018-08-06T05:23:04.631Z,3.40
2018-08-06T05:25:33.142Z,4.00
2018-08-06T05:28:01.622Z,3.47
2018-08-06T05:30:30.092Z,3.27
2018-08-06T05:32:58.592Z,3.33
2018-08-06T05:46:53.532Z,2.87
2018-08-06T05:49:22.022Z,3.10
2018-08-06T05:51:50.497Z,2.60
2018-08-06T05:54:19.001Z,2.97
2018-08-06T05:56:47.584Z,2.70
2018-08-06T05:59:16.108Z,2.60
2018-08-06T06:01:44.654Z,2.70
2018-08-06T06:04:13.234Z,2.60
2018-08-06T06:06:41.732Z,2.70
2018-08-06T06:09:10.993Z,3.03
2018-08-06T06:11:39.906Z,2.80
2018-08-06T06:14:09.312Z,3.13
2018-08-06T06:16:38.496Z,3.00
2018-08-06T06:19:07.195Z,2.67
2018-08-06T06:21:35.910Z,2.67
2018-08-06T06:24:04.548Z,2.43
2018-08-06T06:26:33.043Z,2.53
2018-08-06T06:29:01.522Z,2.83
2018-08-06T06:31:30.015Z,2.57
2018-08-06T06:33:58.541Z,2.70
2018-08-06T06:36:27.581Z,2.50
2018-08-06T06:38:55.716Z,3.10
2018-08-06T06:41:24.371Z,2.60
2018-08-06T06:43:52.872Z,2.60
2018-08-06T06:46:21.444Z,2.50
2018-08-06T06:48:50.051Z,3.20
2018-08-06T06:51:18.514Z,2.77
2018-08-06T06:53:47.005Z,2.63
2018-08-06T06:56:15.802Z,2.77
2018-08-06T06:58:44.402Z,2.87
2018-08-06T07:01:13.032Z,2.87
2018-08-06T07:03:41.757Z,2.50
2018-08-06T07:06:10.394Z,2.70
2018-08-06T07:08:39.224Z,2.50
2018-08-06T07:11:08.060Z,2.80
2018-08-06T07:13:36.703Z,2.67
2018-08-06T07:16:05.477Z,3.03
2018-08-06T07:18:34.071Z,2.60
2018-08-06T07:21:03.627Z,2.83
2018-08-06T07:23:32.205Z,3.10
2018-08-06T07:26:00.687Z,3.07
2018-08-06T07:28:29.194Z,2.73
2018-08-06T07:30:57.747Z,2.80
2018-08-06T07:33:26.363Z,2.43
2018-08-06T07:35:54.931Z,3.67
2018-08-06T07:38:23.369Z,2.40
2018-08-06T07:40:53.473Z,2.63
2018-08-06T07:43:22.189Z,2.60
2018-08-06T07:45:50.684Z,2.47
2018-08-06T07:48:19.284Z,2.57
2018-08-06T07:50:47.451Z,2.60
2018-08-06T07:53:15.956Z,2.60
2018-08-06T07:55:44.446Z,2.77
2018-08-06T07:58:12.928Z,2.37
2018-08-06T08:00:41.424Z,2.50
2018-08-06T08:03:09.981Z,2.30
2018-08-06T08:05:38.472Z,2.30
2018-08-06T08:08:06.947Z,2.50
2018-08-06T08:10:35.671Z,2.70
2018-08-06T08:13:04.346Z,2.57
2018-08-06T08:15:32.581Z,2.23
2018-08-06T08:18:01.087Z,2.60
2018-08-06T08:20:29.696Z,2.20
2018-08-06T08:22:58.211Z,2.73
2018-08-06T08:25:26.816Z,2.80
2018-08-06T08:27:55.384Z,2.40
2018-08-06T08:30:23.936Z,2.40
2018-08-06T08:32:52.540Z,2.47
2018-08-06T08:35:20.680Z,2.50
2018-08-06T08:37:49.192Z,2.27
2018-08-06T08:40:18.968Z,2.47
2018-08-06T08:42:47.494Z,2.70
2018-08-06T08:45:17.135Z,2.63
2018-08-06T08:47:46.188Z,2.30
2018-08-06T08:50:17.195Z,2.33
2018-08-06T08:52:45.742Z,2.20
2018-08-06T08:55:14.806Z,2.50
2018-08-06T08:57:43.484Z,2.20
2018-08-06T09:00:14.501Z,2.40
2018-08-06T09:02:44.358Z,2.40
2018-08-06T09:05:13.141Z,2.50
2018-08-06T09:07:41.631Z,2.90
2018-08-06T09:10:11.827Z,2.80
2018-08-06T09:12:40.746Z,2.67
2018-08-06T09:15:12.501Z,2.57
2018-08-06T09:17:41.058Z,2.67
2018-08-06T09:20:09.873Z,2.80
2018-08-06T09:22:38.693Z,2.20
2018-08-06T09:25:09.115Z,2.60
2018-08-06T09:27:38.213Z,3.30
2018-08-06T09:30:12.846Z,2.80
2018-08-06T09:32:42.507Z,2.63
2018-08-06T09:35:10.973Z,2.60
2018-08-06T09:37:40.098Z,2.43
2018-08-06T09:40:11.098Z,2.83
2018-08-06T09:42:40.258Z,2.27
2018-08-06T09:45:10.927Z,2.63
2018-08-06T09:47:39.651Z,2.80
2018-08-06T09:50:09.567Z,2.47
2018-08-06T09:52:37.997Z,2.83
2018-08-06T09:55:08.899Z,2.70
2018-08-06T09:57:37.107Z,2.53
2018-08-06T10:00:18.072Z,2.63
2018-08-06T10:02:47.751Z,2.73
2018-08-06T10:05:15.993Z,2.50
2018-08-06T10:07:44.769Z,2.53
2018-08-06T10:10:14.007Z,2.33
2018-08-06T10:12:43.468Z,2.70
2018-08-06T10:15:12.415Z,2.40
2018-08-06T10:17:41.502Z,2.33
2018-08-06T10:20:12.294Z,2.30
2018-08-06T10:22:41.270Z,2.20
2018-08-06T10:25:11.553Z,2.67
2018-08-06T10:27:40.818Z,2.70
2018-08-06T10:30:11.997Z,2.40
2018-08-06T10:32:40.106Z,2.47
2018-08-06T10:35:10.080Z,2.50
2018-08-06T10:37:38.840Z,2.20
2018-08-06T10:40:12.530Z,2.83
2018-08-06T10:42:41.553Z,2.30
2018-08-06T10:45:12.711Z,2.40
2018-08-06T10:47:41.355Z,2.53
2018-08-06T10:50:10.217Z,2.40
2018-08-06T10:52:38.722Z,2.30
2018-08-06T10:55:08.035Z,2.70
2018-08-06T10:57:36.705Z,2.40
2018-08-06T11:00:08.616Z,2.10
2018-08-06T11:02:36.758Z,2.20
2018-08-06T11:05:07.226Z,2.63
2018-08-06T11:07:35.635Z,2.10
2018-08-06T11:10:06.146Z,1.90
2018-08-06T11:12:34.697Z,1.90
2018-08-06T11:15:03.216Z,2.53
2018-08-06T11:17:31.649Z,2.60
2018-08-06T11:20:00.168Z,2.00
2018-08-06T11:22:28.719Z,2.20
2018-08-06T11:24:57.175Z,2.20
2018-08-06T11:27:26.014Z,1.90
2018-08-06T11:29:54.681Z,1.90
2018-08-06T11:32:23.165Z,2.20
2018-08-06T11:34:51.709Z,2.00
2018-08-06T11:37:20.560Z,1.87
2018-08-06T11:39:49.009Z,2.13
2018-08-06T11:42:17.841Z,1.70
2018-08-06T11:44:46.356Z,1.87
2018-08-06T11:47:15.025Z,1.87
2018-08-06T11:49:43.713Z,1.80
2018-08-06T11:52:12.292Z,1.67
2018-08-06T11:54:40.980Z,2.10
2018-08-06T11:57:09.454Z,1.93
2018-08-06T11:59:37.909Z,1.93
2018-08-06T12:02:06.363Z,1.60
2018-08-06T12:04:35.046Z,1.80
2018-08-06T12:07:03.622Z,1.87
2018-08-06T12:09:32.081Z,2.00
2018-08-06T12:12:00.708Z,1.90
2018-08-06T12:14:29.178Z,1.60
2018-08-06T12:16:57.852Z,2.07
2018-08-06T12:19:26.582Z,1.90
2018-08-06T12:21:56.001Z,1.77
2018-08-06T12:24:24.670Z,2.23
2018-08-06T12:26:53.195Z,1.80
2018-08-06T12:29:21.683Z,1.80
2018-08-06T12:31:50.171Z,1.57
2018-08-06T12:34:18.712Z,1.80
2018-08-06T12:36:47.239Z,1.60
2018-08-06T12:39:15.984Z,1.70
2018-08-06T12:41:44.514Z,1.97
2018-08-06T12:44:13.799Z,1.50
2018-08-06T12:46:42.457Z,1.70
2018-08-06T12:49:11.233Z,1.70
2018-08-06T12:51:40.074Z,1.70
2018-08-06T12:54:09.338Z,1.60
2018-08-06T12:56:37.884Z,1.80
2018-08-06T12:59:06.432Z,1.83
2018-08-06T13:01:35.035Z,1.93
2018-08-06T13:04:03.542Z,1.60
2018-08-06T13:06:31.819Z,1.50
2018-08-06T13:09:00.354Z,1.60
2018-08-06T13:11:28.955Z,1.50
2018-08-06T13:13:57.398Z,1.57
2018-08-06T13:16:25.873Z,1.47
2018-08-06T13:18:54.337Z,1.47
2018-08-06T13:21:22.895Z,1.57
2018-08-06T13:23:51.423Z,1.60
2018-08-06T13:26:19.630Z,1.60
2018-08-06T13:28:48.078Z,1.40
2018-08-06T13:31:16.321Z,1.70
2018-08-06T13:33:44.957Z,1.43
2018-08-06T13:36:13.488Z,1.60
2018-08-06T13:38:41.992Z,1.40
2018-08-06T13:41:10.504Z,1.50
2018-08-06T13:43:39.181Z,1.20
2018-08-06T13:46:08.076Z,1.40
2018-08-06T13:48:36.543Z,1.90
2018-08-06T13:51:05.119Z,1.50
2018-08-06T13:53:33.619Z,1.55
2018-08-06T13:56:02.144Z,1.70
2018-08-06T13:58:30.341Z,1.57
2018-08-06T14:00:58.875Z,3.47
2018-08-06T14:03:27.392Z,3.92
2018-08-06T14:05:55.840Z,1.47
2018-08-06T14:08:24.308Z,1.45
2018-08-06T14:10:52.811Z,1.52
2018-08-06T14:13:21.968Z,1.37
2018-08-06T14:15:50.100Z,2.00
2018-08-06T14:18:18.575Z,1.52
2018-08-06T14:20:47.104Z,1.40
2018-08-06T14:23:15.714Z,1.60
2018-08-06T14:25:44.185Z,1.60
2018-08-06T14:28:12.342Z,1.42
2018-08-06T14:30:40.858Z,1.35
2018-08-06T14:33:09.041Z,1.55
2018-08-06T14:35:37.569Z,1.22
2018-08-06T14:38:06.109Z,1.75
2018-08-06T14:40:34.313Z,1.50
2018-08-06T14:43:02.783Z,1.42
2018-08-06T14:45:31.293Z,1.50
2018-08-06T14:47:59.795Z,1.40
2018-08-06T14:50:28.359Z,1.40
2018-08-06T14:52:56.879Z,1.35
2018-08-06T14:55:25.405Z,1.27
2018-08-06T14:57:55.975Z,1.33
2018-08-06T15:00:24.651Z,1.20
2018-08-06T15:02:53.936Z,1.10
2018-08-06T15:05:22.378Z,1.30
2018-08-06T15:07:50.888Z,1.20
2018-08-06T15:10:19.364Z,1.30
2018-08-06T15:12:47.577Z,1.35
2018-08-06T15:15:17.250Z,1.40
2018-08-06T15:17:46.319Z,1.25
2018-08-06T15:20:16.055Z,1.30
2018-08-06T15:22:44.667Z,1.40
2018-08-06T15:25:15.662Z,1.35
2018-08-06T15:27:44.158Z,1.20
2018-08-06T15:30:13.129Z,1.27
2018-08-06T15:32:41.638Z,1.13
2018-08-06T15:35:10.928Z,1.15
2018-08-06T15:37:40.407Z,1.20
2018-08-06T15:40:13.295Z,1.20
2018-08-06T15:42:41.875Z,1.30
2018-08-06T15:45:11.270Z,1.22
2018-08-06T15:47:40.109Z,1.27
2018-08-06T15:50:10.923Z,1.40
2018-08-06T15:52:39.450Z,1.50
2018-08-06T15:55:07.965Z,1.22
2018-08-06T15:57:36.451Z,1.30
2018-08-06T16:00:06.593Z,1.40
2018-08-06T16:02:34.808Z,1.15
2018-08-06T16:05:03.292Z,1.10
2018-08-06T16:07:31.784Z,1.30
2018-08-06T16:10:00.243Z,1.07
2018-08-06T16:12:28.810Z,1.15
2018-08-06T16:14:57.248Z,1.12
2018-08-06T16:17:25.734Z,1.32
2018-08-06T16:19:54.205Z,1.10
2018-08-06T16:22:22.695Z,1.37
2018-08-06T16:24:51.965Z,1.30
2018-08-06T16:27:20.447Z,1.30
2018-08-06T16:29:48.620Z,1.12
2018-08-06T16:32:17.110Z,1.30
2018-08-06T16:34:45.310Z,1.30
2018-08-06T16:37:13.839Z,1.40
2018-08-06T16:39:42.312Z,1.70
2018-08-06T16:42:10.802Z,1.10
2018-08-06T16:44:39.305Z,1.40
2018-08-06T16:47:07.799Z,1.35
2018-08-06T16:49:36.704Z,1.40
2018-08-06T16:52:05.305Z,1.35
2018-08-06T16:54:33.795Z,1.30
2018-08-06T16:57:01.953Z,1.37
2018-08-06T16:59:30.146Z,1.12
2018-08-06T17:01:58.429Z,1.30
2018-08-06T17:04:26.628Z,1.40
2018-08-06T17:06:55.082Z,1.30
2018-08-06T17:09:23.592Z,2.12
2018-08-06T17:11:52.075Z,1.50
2018-08-06T17:14:20.227Z,1.43
2018-08-06T17:16:48.788Z,6.62
2018-08-06T17:19:17.284Z,1.85
2018-08-06T17:21:45.886Z,3.10
2018-08-06T17:24:14.378Z,1.80
2018-08-06T17:26:42.913Z,1.40
2018-08-06T17:29:11.459Z,1.23
2018-08-06T17:31:39.925Z,1.47
2018-08-06T17:34:08.498Z,1.67
2018-08-06T17:36:36.984Z,1.60
2018-08-06T17:39:08.814Z,1.70
2018-08-06T17:41:40.742Z,1.43
2018-08-06T17:44:09.659Z,1.53
2018-08-06T17:46:38.135Z,1.50
2018-08-06T17:49:06.454Z,1.40
2018-08-06T17:51:34.957Z,1.40
2018-08-06T17:54:03.504Z,1.60
2018-08-06T17:56:31.999Z,1.57
2018-08-06T17:59:00.571Z,1.50
2018-08-06T18:01:29.052Z,1.80
2018-08-06T18:03:57.529Z,1.87
2018-08-06T18:06:25.988Z,1.70
2018-08-06T18:08:54.628Z,1.67
2018-08-06T18:11:22.999Z,1.90
2018-08-06T18:13:51.488Z,1.90
2018-08-06T18:16:19.987Z,1.63
2018-08-06T18:18:48.455Z,1.50
2018-08-06T18:21:16.710Z,1.43
2018-08-06T18:23:45.172Z,1.50
2018-08-06T18:26:13.646Z,1.60
2018-08-06T18:28:42.160Z,1.67
2018-08-06T18:31:10.618Z,1.60
2018-08-06T18:33:39.159Z,1.67
2018-08-06T18:36:07.665Z,1.80
2018-08-06T18:38:36.140Z,1.70
2018-08-06T18:41:04.654Z,1.60
2018-08-06T18:43:33.128Z,1.43
2018-08-06T18:46:01.634Z,1.60
2018-08-06T18:48:30.101Z,1.70
2018-08-06T18:50:58.590Z,1.70
2018-08-06T18:53:27.046Z,1.70
2018-08-06T18:55:55.289Z,1.70
2018-08-06T18:58:23.960Z,1.80
2018-08-06T19:00:52.483Z,1.60
2018-08-06T19:03:20.952Z,1.43
2018-08-06T19:05:49.563Z,1.30
2018-08-06T19:08:17.733Z,1.70
2018-08-06T19:10:46.305Z,1.80
2018-08-06T19:13:20.222Z,1.60
2018-08-06T19:15:48.773Z,1.50
2018-08-06T19:18:22.593Z,1.40
2018-08-06T19:20:51.167Z,1.60
2018-08-06T19:23:19.688Z,1.50
2018-08-06T19:25:47.870Z,1.80
2018-08-06T19:28:16.418Z,1.60
2018-08-06T19:30:50.419Z,1.77
2018-08-06T19:33:19.020Z,1.40
2018-08-06T19:35:47.553Z,1.63
2018-08-06T19:38:16.230Z,1.53
2018-08-06T19:40:44.755Z,1.80
2018-08-06T19:43:18.676Z,1.70
2018-08-06T19:45:47.219Z,1.80
2018-08-06T19:48:15.715Z,1.80
2018-08-06T19:50:45.318Z,1.70
2018-08-06T19:53:14.853Z,1.70
2018-08-06T19:55:49.226Z,2.00
2018-08-06T19:58:17.926Z,1.73
2018-08-06T20:00:46.450Z,2.07
2018-08-06T20:03:14.702Z,1.73
2018-08-06T20:05:43.239Z,1.80
2018-08-06T20:08:11.763Z,1.77
2018-08-06T20:10:40.475Z,1.60
2018-08-06T20:13:09.007Z,2.03
2018-08-06T20:15:37.510Z,1.80
2018-08-06T20:18:06.044Z,1.87
2018-08-06T20:20:34.520Z,1.63
2018-08-06T20:23:03.061Z,2.00
2018-08-06T20:25:31.593Z,1.90
2018-08-06T20:28:00.143Z,1.90
2018-08-06T20:30:28.646Z,1.93
2018-08-06T20:32:57.338Z,1.90
2018-08-06T20:35:25.866Z,1.70
2018-08-06T20:37:54.363Z,2.10
2018-08-06T20:40:22.995Z,2.10
2018-08-06T20:42:51.582Z,2.03
2018-08-06T20:45:21.183Z,1.80
2018-08-06T20:47:49.788Z,1.90
2018-08-06T20:50:19.812Z,1.60
2018-08-06T20:52:49.387Z,1.70
2018-08-06T20:55:17.947Z,1.83
2018-08-06T20:57:46.394Z,1.83
2018-08-06T21:00:17.889Z,1.80
2018-08-06T21:02:47.162Z,1.83
2018-08-06T21:05:15.709Z,1.90
2018-08-06T21:07:44.167Z,1.87
2018-08-06T21:10:14.209Z,2.03
2018-08-06T21:12:42.836Z,1.73
2018-08-06T21:15:12.596Z,1.77
2018-08-06T21:17:41.075Z,1.60
2018-08-06T21:20:11.236Z,1.93
2018-08-06T21:22:39.907Z,2.10
2018-08-06T21:25:09.549Z,2.57
2018-08-06T21:27:38.326Z,2.00
2018-08-06T21:30:09.345Z,2.00
2018-08-06T21:32:38.167Z,1.70
2018-08-06T21:35:07.192Z,1.70
2018-08-06T21:37:35.660Z,1.50
2018-08-06T21:40:04.200Z,1.57
2018-08-06T21:42:32.734Z,1.60
2018-08-06T21:45:01.290Z,1.80
2018-08-06T21:47:29.787Z,1.83
2018-08-06T21:49:58.295Z,1.60
2018-08-06T21:52:26.752Z,1.70
2018-08-06T21:54:55.514Z,1.90
2018-08-06T21:57:24.037Z,2.40
2018-08-06T21:59:52.538Z,2.40
2018-08-06T22:02:21.028Z,2.10
2018-08-06T22:04:49.674Z,1.90
2018-08-06T22:07:18.199Z,1.80
2018-08-06T22:09:46.674Z,1.80
2018-08-06T22:12:15.187Z,1.67
2018-08-06T22:14:43.687Z,1.73
2018-08-06T22:17:12.154Z,1.60
2018-08-06T22:19:40.633Z,1.70
2018-08-06T22:22:09.737Z,1.63
2018-08-06T22:24:38.296Z,1.83
2018-08-06T22:27:06.885Z,1.70
2018-08-06T22:29:35.516Z,1.60
2018-08-06T22:32:04.133Z,1.50
2018-08-06T22:34:32.358Z,2.00
2018-08-06T22:37:00.950Z,2.53
2018-08-06T22:39:29.510Z,2.20
2018-08-06T22:41:58.071Z,1.67
2018-08-06T22:44:26.650Z,1.80
2018-08-06T22:46:55.145Z,1.93
2018-08-06T22:49:23.410Z,1.93
2018-08-06T22:51:51.894Z,1.70
2018-08-06T22:54:20.506Z,2.03
2018-08-06T22:56:51.642Z,1.80
2018-08-06T22:59:20.271Z,1.80
2018-08-06T23:01:48.720Z,1.50
2018-08-06T23:04:16.943Z,1.73
2018-08-06T23:06:45.383Z,1.90
2018-08-06T23:09:13.738Z,1.90
2018-08-06T23:11:42.354Z,2.10
2018-08-06T23:14:10.912Z,1.80
2018-08-06T23:16:39.437Z,1.73
2018-08-06T23:19:08.185Z,2.03
2018-08-06T23:21:36.970Z,1.93
2018-08-06T23:24:06.357Z,1.90
2018-08-06T23:26:34.901Z,1.90
2018-08-06T23:29:03.150Z,1.93
2018-08-06T23:31:31.630Z,2.17
2018-08-06T23:34:00.192Z,1.70
2018-08-06T23:36:28.634Z,2.20
2018-08-06T23:38:57.316Z,2.17
2018-08-06T23:41:26.103Z,1.83
2018-08-06T23:43:54.719Z,1.83
2018-08-06T23:46:23.103Z,2.00
2018-08-06T23:48:51.657Z,2.00
2018-08-06T23:51:20.167Z,2.17
2018-08-06T23:53:48.386Z,1.93
2018-08-06T23:56:16.901Z,1.70
2018-08-06T23:58:45.422Z,2.30
